Time;durP1;ratioP1;P1;durP2;ratioP2;P2;SDS_P1;SDS_P2;PMS_P1;PMS_P2;Temp;Humidity;BMP_temperature;BMP_pressure;BME280_temperature;BME280_humidity;BME280_pressure;Samples;Min_cycle;Max_cycle;Signal;HPM_P1;HPM_P2
2024/03/28 00:00:17;;;;;;;8.95;3.70;;;;;;;7.20;100.00;98453.34;5044600;28;20067;-65
2024/03/28 00:02:43;;;;;;;10.82;3.72;;;;;;;7.20;100.00;98446.31;5037335;28;20029;-67
2024/03/28 00:05:08;;;;;;;9.38;3.70;;;;;;;7.21;100.00;98440.19;5044146;28;20021;-71
2024/03/28 00:07:34;;;;;;;10.50;3.80;;;;;;;7.21;100.00;98436.66;5042613;28;20040;-69
2024/03/28 00:09:59;;;;;;;9.52;3.78;;;;;;;7.20;100.00;98438.44;5042939;28;20057;-67
2024/03/28 00:12:24;;;;;;;11.25;3.78;;;;;;;7.16;100.00;98426.25;5043719;28;20028;-69
2024/03/28 00:14:50;;;;;;;11.32;3.80;;;;;;;7.12;100.00;98430.72;5040693;28;20030;-68
2024/03/28 00:17:15;;;;;;;10.13;3.50;;;;;;;7.12;100.00;98424.56;5044733;28;20107;-70
2024/03/28 00:19:40;;;;;;;9.27;3.72;;;;;;;7.09;100.00;98412.38;5041356;28;20030;-65
2024/03/28 00:22:07;;;;;;;11.02;3.90;;;;;;;7.09;100.00;98409.75;5043561;28;20029;-76
2024/03/28 00:24:32;;;;;;;9.93;3.80;;;;;;;7.09;100.00;98411.50;5042415;28;20545;-76
2024/03/28 00:26:58;;;;;;;12.85;4.00;;;;;;;7.07;100.00;98408.06;5042375;28;20025;-76
2024/03/28 00:29:24;;;;;;;9.68;3.80;;;;;;;7.05;100.00;98399.31;5043499;28;20052;-68
2024/03/28 00:31:49;;;;;;;10.98;3.90;;;;;;;7.00;100.00;98399.41;5040832;28;20068;-65
2024/03/28 00:34:14;;;;;;;11.75;4.00;;;;;;;6.96;100.00;98388.13;5044210;28;20033;-67
2024/03/28 00:36:40;;;;;;;9.75;3.90;;;;;;;6.95;100.00;98396.03;5040154;28;20025;-65
2024/03/28 00:39:05;;;;;;;9.23;3.92;;;;;;;6.93;100.00;98382.94;5043277;28;20033;-66
2024/03/28 00:41:31;;;;;;;12.00;4.18;;;;;;;6.90;100.00;98380.38;5042351;28;20040;-66
2024/03/28 00:43:56;;;;;;;9.73;3.80;;;;;;;6.85;100.00;98379.59;5041877;28;20103;-65
2024/03/28 00:46:21;;;;;;;12.57;4.18;;;;;;;6.82;100.00;98365.66;5043624;28;20115;-66
2024/03/28 00:48:47;;;;;;;12.65;4.10;;;;;;;6.78;100.00;98367.47;5044644;28;20052;-65
2024/03/28 00:51:12;;;;;;;8.95;3.72;;;;;;;6.74;100.00;98366.69;5047980;28;20391;-68
2024/03/28 00:53:37;;;;;;;12.18;3.80;;;;;;;6.69;100.00;98357.16;5044186;28;20025;-69
2024/03/28 00:56:03;;;;;;;11.80;3.78;;;;;;;6.67;100.00;98357.19;5046787;28;20029;-67
2024/03/28 00:58:28;;;;;;;10.27;3.85;;;;;;;6.60;100.00;98347.69;5046700;28;20459;-69
2024/03/28 01:00:53;;;;;;;11.48;4.13;;;;;;;6.54;100.00;98356.56;5045527;28;20473;-66
2024/03/28 01:03:19;;;;;;;10.10;3.97;;;;;;;6.49;100.00;98349.66;5048226;28;20574;-66
2024/03/28 01:05:44;;;;;;;12.10;4.30;;;;;;;6.38;100.00;98342.00;5044646;28;20483;-66
2024/03/28 01:08:10;;;;;;;12.65;4.35;;;;;;;6.28;100.00;98338.66;5047243;28;20103;-67
2024/03/28 01:10:36;;;;;;;12.13;4.30;;;;;;;6.20;100.00;98338.78;5045709;28;20051;-69
2024/03/28 01:13:04;;;;;;;13.10;4.30;;;;;;;6.12;100.00;98338.06;5046126;28;20056;-68
2024/03/28 01:15:29;;;;;;;13.80;4.53;;;;;;;6.04;100.00;98332.97;5044897;28;20480;-67
2024/03/28 01:17:54;;;;;;;11.27;4.40;;;;;;;5.98;100.00;98329.56;5045536;28;20038;-70
2024/03/28 01:20:21;;;;;;;13.93;4.85;;;;;;;5.95;100.00;98327.81;5046380;28;20044;-65
2024/03/28 01:22:46;;;;;;;12.95;4.40;;;;;;;5.94;100.00;98319.09;5044024;28;20033;-65
2024/03/28 01:25:12;;;;;;;14.13;4.60;;;;;;;5.91;100.00;98316.53;5047450;28;20033;-65
2024/03/28 01:27:40;;;;;;;15.32;4.60;;;;;;;5.85;100.00;98316.63;5044669;28;20384;-66
2024/03/28 01:30:07;;;;;;;11.63;4.22;;;;;;;5.76;100.00;98314.16;5046334;28;20037;-66
2024/03/28 01:32:33;;;;;;;12.43;4.50;;;;;;;5.74;100.00;98308.09;5046022;28;20029;-66
2024/03/28 01:34:58;;;;;;;12.63;4.60;;;;;;;5.72;100.00;98317.72;5045454;28;20493;-68
2024/03/28 01:37:24;;;;;;;12.73;4.60;;;;;;;5.66;100.00;98309.97;5046947;28;20032;-67
2024/03/28 01:39:49;;;;;;;16.83;5.25;;;;;;;5.61;100.00;98317.00;5043779;28;20120;-65
2024/03/28 01:42:15;;;;;;;14.82;5.00;;;;;;;5.53;100.00;98318.03;5047231;28;20229;-65
2024/03/28 01:44:40;;;;;;;15.32;5.05;;;;;;;5.47;100.00;98323.34;5044349;28;20034;-66
2024/03/28 01:47:06;;;;;;;15.88;5.57;;;;;;;5.45;100.00;98313.81;5046225;28;20033;-66
2024/03/28 01:49:33;;;;;;;15.98;5.65;;;;;;;5.39;100.00;98307.75;5045305;28;20044;-66
2024/03/28 01:52:00;;;;;;;15.93;5.72;;;;;;;5.37;100.00;98309.53;5045297;28;20167;-66
2024/03/28 01:54:26;;;;;;;14.35;5.22;;;;;;;5.32;100.00;98306.09;5046356;28;20040;-68
2024/03/28 01:56:52;;;;;;;14.65;5.25;;;;;;;5.35;100.00;98307.81;5043736;28;20029;-66
2024/03/28 01:59:18;;;;;;;15.55;5.30;;;;;;;5.35;100.00;98305.19;5046933;28;20025;-67
2024/03/28 02:01:45;;;;;;;14.93;5.28;;;;;;;5.38;100.00;98307.78;5042310;28;20056;-65
2024/03/28 02:04:11;;;;;;;15.05;5.13;;;;;;;5.38;100.00;98302.53;5046179;28;20033;-66
2024/03/28 02:06:39;;;;;;;16.25;5.30;;;;;;;5.38;100.00;98300.75;5044784;28;20035;-65
2024/03/28 02:09:07;;;;;;;14.13;4.95;;;;;;;5.35;100.00;98295.56;5045407;28;20124;-66
2024/03/28 02:11:33;;;;;;;15.88;5.53;;;;;;;5.32;100.00;98292.16;5043866;28;20032;-66
2024/03/28 02:13:59;;;;;;;13.88;5.00;;;;;;;5.31;100.00;98293.03;5044780;28;20099;-65
2024/03/28 02:16:25;;;;;;;12.90;4.85;;;;;;;5.31;100.00;98293.03;5045800;28;20025;-66
2024/03/28 02:18:57;;;;;;;14.95;4.95;;;;;;;5.33;100.00;98300.00;5042019;28;20480;-69
2024/03/28 02:21:23;;;;;;;;;;;;;;;5.35;100.00;98294.72;5046849;28;20033;-67
2024/03/28 02:23:50;;;;;;;13.55;4.88;;;;;;;5.34;100.00;98283.34;5043015;28;20364;-65
2024/03/28 02:26:17;;;;;;;15.18;4.90;;;;;;;5.35;100.00;98281.63;5046361;28;20120;-65
2024/03/28 02:28:42;;;;;;;13.85;4.70;;;;;;;5.39;100.00;98275.44;5043125;28;20061;-66
2024/03/28 02:31:08;;;;;;;11.52;4.60;;;;;;;5.49;100.00;98284.91;5045465;28;20050;-65
2024/03/28 02:33:36;;;;;;;13.32;4.70;;;;;;;5.58;100.00;98279.50;5044496;28;20376;-65
2024/03/28 02:36:01;;;;;;;12.02;4.57;;;;;;;5.67;100.00;98272.38;5044530;28;20472;-65
2024/03/28 02:38:26;;;;;;;13.38;4.70;;;;;;;5.66;100.00;98268.88;5045487;28;20120;-67
2024/03/28 02:40:52;;;;;;;12.63;4.70;;;;;;;5.66;100.00;98268.88;5041683;28;20040;-66
2024/03/28 02:43:17;;;;;;;13.10;4.70;;;;;;;5.61;100.00;98265.47;5046402;28;20078;-68
2024/03/28 02:45:42;;;;;;;11.77;4.32;;;;;;;5.56;100.00;98269.91;5042821;28;20034;-66
2024/03/28 02:48:08;;;;;;;13.02;4.50;;;;;;;5.53;100.00;98273.47;5045228;28;20037;-67
2024/03/28 02:50:34;;;;;;;13.63;4.70;;;;;;;5.46;100.00;98261.38;5044274;28;20025;-69
2024/03/28 02:52:59;;;;;;;14.07;4.60;;;;;;;5.46;100.00;98252.63;5043695;28;20036;-68
2024/03/28 02:55:24;;;;;;;12.50;4.55;;;;;;;5.45;100.00;98250.91;5045192;28;20025;-66
2024/03/28 02:57:50;;;;;;;11.50;4.50;;;;;;;5.50;100.00;98249.91;5042832;28;20080;-66
2024/03/28 03:00:17;;;;;;;15.02;4.70;;;;;;;5.51;100.00;98232.47;5045685;28;20029;-67
2024/03/28 03:02:42;;;;;;;11.90;4.20;;;;;;;5.56;100.00;98207.91;5042915;28;20038;-65
2024/03/28 03:05:08;;;;;;;12.90;4.45;;;;;;;5.56;100.00;98207.91;5044677;28;20044;-65
2024/03/28 03:07:33;;;;;;;14.20;4.70;;;;;;;5.52;100.00;98208.84;5043857;28;20028;-65
2024/03/28 03:09:59;;;;;;;12.32;4.50;;;;;;;5.51;100.00;98203.63;5042917;28;20483;-65
2024/03/28 03:12:25;;;;;;;13.77;4.60;;;;;;;5.48;100.00;98209.78;5027171;28;20083;-66
2024/03/28 03:14:50;;;;;;;13.13;4.43;;;;;;;5.50;100.00;98200.13;5042091;28;20025;-66
2024/03/28 03:17:15;;;;;;;12.45;4.53;;;;;;;5.51;100.00;98204.47;5044706;28;20037;-66
2024/03/28 03:19:41;;;;;;;13.50;4.68;;;;;;;5.53;100.00;98197.47;5042471;28;20160;-67
2024/03/28 03:22:06;;;;;;;14.23;4.53;;;;;;;5.54;100.00;98180.84;5044062;28;20029;-65
2024/03/28 03:24:35;;;;;;;12.95;4.65;;;;;;;5.55;100.00;98177.34;5043744;28;20029;-65
2024/03/28 03:27:04;;;;;;;14.38;5.03;;;;;;;5.56;100.00;98168.59;5041853;28;20072;-66
2024/03/28 03:34:58;;;;;;;12.07;4.20;;;;;;;5.51;100.00;98149.44;5040714;28;20384;-65
2024/03/28 03:37:25;;;;;;;11.75;4.28;;;;;;;5.53;100.00;98152.94;5044906;28;20029;-65
2024/03/28 03:39:54;;;;;;;12.15;4.30;;;;;;;5.54;100.00;98159.88;5041879;28;20022;-66
2024/03/28 03:42:20;;;;;;;13.65;4.57;;;;;;;5.52;100.00;98152.94;5045020;28;20029;-65
2024/03/28 03:44:46;;;;;;;13.98;4.57;;;;;;;5.51;100.00;98148.59;5037568;28;20095;-65
2024/03/28 03:47:11;;;;;;;13.95;4.53;;;;;;;5.47;100.00;98147.78;5044368;28;20498;-68
2024/03/28 03:49:43;;;;;;;14.23;4.75;;;;;;;5.43;100.00;98151.34;5042613;28;20057;-67
2024/03/28 03:52:08;;;;;;;14.80;4.70;;;;;;;5.37;100.00;98139.25;5044006;28;20087;-65
2024/03/28 03:54:34;;;;;;;13.50;4.38;;;;;;;5.32;100.00;98153.31;5042883;28;20029;-65
2024/03/28 03:56:59;;;;;;;11.65;4.30;;;;;;;5.29;100.00;98148.97;5042508;28;20021;-65
2024/03/28 03:59:24;;;;;;;13.52;4.78;;;;;;;5.21;100.00;98145.63;5044277;28;20100;-65
2024/03/28 04:01:50;;;;;;;13.75;4.53;;;;;;;5.10;100.00;98156.28;5041273;28;20034;-65
2024/03/28 04:04:15;;;;;;;14.85;4.90;;;;;;;5.07;100.00;98146.72;5044457;28;20033;-65
2024/03/28 04:06:40;;;;;;;13.30;4.60;;;;;;;5.03;100.00;98149.41;5041920;28;20037;-65
2024/03/28 04:09:08;;;;;;;14.63;5.00;;;;;;;4.98;100.00;98144.25;5041953;28;20018;-65
2024/03/28 04:11:34;;;;;;;14.45;4.80;;;;;;;4.99;100.00;98150.34;5042595;28;20472;-68
2024/03/28 04:13:59;;;;;;;14.85;5.13;;;;;;;4.98;100.00;98138.13;5042701;28;20034;-67
2024/03/28 04:16:25;;;;;;;14.02;4.90;;;;;;;4.98;100.00;98132.91;5042507;28;20072;-66
2024/03/28 04:18:51;;;;;;;16.27;5.10;;;;;;;4.95;100.00;98127.72;5041249;28;20030;-65
2024/03/28 04:21:17;;;;;;;15.65;5.32;;;;;;;4.98;100.00;98107.59;5036433;28;20030;-65
2024/03/28 04:23:42;;;;;;;15.55;5.20;;;;;;;5.07;100.00;98111.81;5042461;28;20036;-65
2024/03/28 04:26:08;;;;;;;13.85;5.25;;;;;;;5.05;100.00;98103.09;5040667;28;20037;-66
2024/03/28 04:28:33;;;;;;;14.93;5.40;;;;;;;5.02;100.00;98108.41;5039784;28;20045;-65
2024/03/28 04:30:58;;;;;;;14.57;5.38;;;;;;;4.99;100.00;98108.44;5041854;28;20037;-66
2024/03/28 04:33:24;;;;;;;14.60;5.45;;;;;;;4.96;100.00;98114.59;5044700;28;20045;-75
2024/03/28 04:35:49;;;;;;;17.02;5.30;;;;;;;4.95;100.00;98115.50;5041055;28;20024;-76
2024/03/28 04:38:15;;;;;;;16.52;5.22;;;;;;;4.96;100.00;98111.13;5042881;28;20029;-74
2024/03/28 04:40:41;;;;;;;16.05;5.45;;;;;;;4.96;100.00;98114.59;5041691;28;20029;-66
2024/03/28 04:43:07;;;;;;;18.05;5.93;;;;;;;4.93;100.00;98103.31;5042843;28;20503;-65
2024/03/28 04:45:32;;;;;;;16.35;5.50;;;;;;;4.86;100.00;98103.44;5041479;28;20032;-69
2024/03/28 04:47:57;;;;;;;16.52;5.47;;;;;;;4.85;100.00;98101.69;5042090;28;20030;-73
2024/03/28 04:50:23;;;;;;;14.88;5.40;;;;;;;4.80;100.00;98095.66;5043905;28;20040;-65
2024/03/28 04:52:49;;;;;;;16.67;5.57;;;;;;;4.84;100.00;98099.09;5040901;28;20029;-65
2024/03/28 04:55:14;;;;;;;16.40;5.50;;;;;;;4.80;100.00;98116.59;5043947;28;20147;-69
2024/03/28 04:57:40;;;;;;;15.63;5.40;;;;;;;4.78;100.00;98091.34;5041685;28;20037;-76
2024/03/28 05:00:08;;;;;;;17.88;5.70;;;;;;;4.75;100.00;98091.38;5041518;28;20038;-74
2024/03/28 05:02:34;;;;;;;16.23;5.68;;;;;;;4.64;100.00;98108.13;5042964;28;20033;-71
2024/03/28 05:05:01;;;;;;;17.75;5.57;;;;;;;4.64;100.00;98102.03;5042109;28;20118;-66
2024/03/28 05:07:26;;;;;;;15.82;5.30;;;;;;;4.68;100.00;98093.25;5043635;28;20052;-69
2024/03/28 05:09:52;;;;;;;16.52;5.45;;;;;;;4.64;100.00;98079.31;5040791;28;20112;-74
2024/03/28 05:12:18;;;;;;;14.82;5.20;;;;;;;4.66;100.00;98090.66;5043910;28;20025;-67
2024/03/28 05:14:44;;;;;;;16.63;5.70;;;;;;;4.68;100.00;98093.25;5040872;28;20086;-71
2024/03/28 05:17:09;;;;;;;15.27;5.55;;;;;;;4.66;100.00;98095.00;5043492;28;20123;-73
2024/03/28 05:19:35;;;;;;;15.23;5.50;;;;;;;4.66;100.00;98108.09;5040770;28;20515;-69
2024/03/28 05:22:02;;;;;;;15.23;5.18;;;;;;;4.57;100.00;98110.84;5042005;28;20075;-71
2024/03/28 05:24:28;;;;;;;17.73;5.40;;;;;;;4.53;100.00;98131.84;5043094;28;20025;-65
2024/03/28 05:26:53;;;;;;;15.65;5.40;;;;;;;4.49;100.00;98122.28;5040671;28;20037;-66
2024/03/28 05:29:18;;;;;;;16.38;5.75;;;;;;;4.52;100.00;98129.25;5043854;28;20044;-65
2024/03/28 05:31:44;;;;;;;15.73;5.50;;;;;;;4.51;100.00;98137.97;5040655;28;20140;-65
2024/03/28 05:34:09;;;;;;;16.50;5.30;;;;;;;4.49;100.00;98137.13;5044321;28;20025;-65
2024/03/28 05:36:37;;;;;;;17.48;5.10;;;;;;;4.51;100.00;98130.13;5046116;28;20460;-72
2024/03/28 05:39:06;;;;;;;15.98;5.47;;;;;;;4.52;100.00;98134.47;5045522;28;20025;-73
2024/03/28 05:41:32;;;;;;;16.83;5.60;;;;;;;4.53;100.00;98142.31;5046160;28;20029;-76
2024/03/28 05:43:58;;;;;;;15.80;5.50;;;;;;;4.58;100.00;98142.22;5044866;28;20472;-73
2024/03/28 05:46:23;;;;;;;17.13;5.70;;;;;;;4.67;100.00;98139.47;5047425;28;20115;-69
2024/03/28 05:48:48;;;;;;;16.50;5.45;;;;;;;4.79;100.00;98138.44;5044172;28;20453;-68
2024/03/28 05:51:14;;;;;;;15.25;5.60;;;;;;;4.91;100.00;98141.72;5047035;28;20488;-66
2024/03/28 05:53:45;;;;;;;16.15;5.10;;;;;;;5.04;100.00;98135.44;5045042;28;20384;-74
2024/03/28 05:56:10;;;;;;;15.18;5.10;;;;;;;5.18;100.00;98129.94;5046534;28;20120;-75
2024/03/28 05:58:36;;;;;;;15.20;5.32;;;;;;;5.36;100.00;98144.50;5045305;28;20058;-72
2024/03/28 06:01:01;;;;;;;15.30;5.25;;;;;;;5.48;100.00;98125.94;5044871;28;20068;-73
2024/03/28 06:03:26;;;;;;;15.57;5.07;;;;;;;5.61;100.00;98128.31;5046258;28;20078;-73
2024/03/28 06:05:52;;;;;;;16.23;4.88;;;;;;;5.71;100.00;98127.28;5042657;28;20063;-76
2024/03/28 06:08:17;;;;;;;15.32;4.97;;;;;;;5.75;100.00;98129.78;5039555;28;20033;-71
2024/03/28 06:10:45;;;;;;;14.55;4.80;;;;;;;5.81;100.00;98120.06;5046318;28;20025;-69
2024/03/28 06:13:11;;;;;;;15.00;5.00;;;;;;;5.84;100.00;98118.25;5047024;28;20065;-76
2024/03/28 06:15:36;;;;;;;12.20;4.70;;;;;;;5.87;100.00;98110.34;5044866;28;20107;-66
2024/03/28 06:18:01;;;;;;;11.40;4.47;;;;;;;5.89;100.00;98103.28;5043444;28;20034;-68
2024/03/28 06:20:27;;;;;;;14.43;4.70;;;;;;;5.92;100.00;98103.22;5046480;28;20025;-74
2024/03/28 06:22:52;;;;;;;14.52;4.78;;;;;;;5.97;100.00;98110.13;5043585;28;20033;-69
2024/03/28 06:25:17;;;;;;;13.07;4.75;;;;;;;5.97;100.00;98105.81;5039315;28;20040;-73
2024/03/28 06:27:42;;;;;;;13.20;4.70;;;;;;;6.03;100.00;98099.53;5044833;28;20025;-76
2024/03/28 06:30:08;;;;;;;14.27;4.65;;;;;;;6.05;100.00;98093.38;5044538;28;20036;-76
2024/03/28 06:32:34;;;;;;;12.82;4.50;;;;;;;6.11;100.00;98098.50;5043516;28;20120;-67
2024/03/28 06:34:59;;;;;;;13.77;4.50;;;;;;;6.16;100.00;98093.16;5046020;28;20086;-76
2024/03/28 06:37:25;;;;;;;12.40;4.40;;;;;;;6.20;100.00;98086.94;5043563;28;20021;-76
2024/03/28 06:39:51;;;;;;;12.63;4.60;;;;;;;6.22;100.00;98082.53;5046851;28;20119;-73
2024/03/28 06:42:16;;;;;;;13.77;4.63;;;;;;;6.26;100.00;98099.06;5043093;28;20029;-67
2024/03/28 06:44:47;;;;;;;12.68;4.43;;;;;;;6.26;100.00;98094.69;5044570;28;20043;-67
2024/03/28 06:47:13;;;;;;;12.40;4.40;;;;;;;6.31;100.00;98098.97;5042268;28;20034;-73
2024/03/28 06:49:39;;;;;;;14.70;4.78;;;;;;;6.31;100.00;98096.34;5044657;28;20025;-66
2024/03/28 06:52:05;;;;;;;13.10;4.68;;;;;;;6.34;100.00;98101.53;5044592;28;20025;-66
2024/03/28 06:54:30;;;;;;;12.38;4.30;;;;;;;6.37;100.00;98104.09;5044055;28;20076;-70
2024/03/28 06:56:55;;;;;;;13.73;4.63;;;;;;;6.38;100.00;98101.44;5045769;28;20131;-66
2024/03/28 06:59:21;;;;;;;14.48;4.55;;;;;;;6.40;100.00;98106.63;5042912;28;20028;-66
2024/03/28 07:01:46;;;;;;;13.27;4.55;;;;;;;6.42;100.00;98108.34;5045802;28;20033;-65
2024/03/28 07:04:11;;;;;;;13.60;4.68;;;;;;;6.46;100.00;98114.38;5043369;28;20025;-66
2024/03/28 07:06:39;;;;;;;13.18;4.43;;;;;;;6.49;100.00;98114.28;5044180;28;20070;-66
2024/03/28 07:09:04;;;;;;;15.48;4.55;;;;;;;6.53;100.00;98122.97;5043099;28;20025;-66
2024/03/28 07:11:30;;;;;;;12.70;4.53;;;;;;;6.56;100.00;98126.38;5043113;28;20544;-66
2024/03/28 07:13:55;;;;;;;12.43;4.20;;;;;;;6.59;100.00;98130.72;5045291;28;20140;-68
2024/03/28 07:16:20;;;;;;;11.98;4.30;;;;;;;6.49;100.00;98122.16;5042465;28;20057;-76
2024/03/28 07:18:46;;;;;;;13.15;4.35;;;;;;;6.36;100.00;98123.34;5045398;28;20056;-76
2024/03/28 07:21:11;;;;;;;15.38;4.93;;;;;;;6.19;100.00;98129.81;5041937;28;20037;-75
2024/03/28 07:23:40;;;;;;;14.73;4.82;;;;;;;5.93;100.00;98131.19;5043142;28;20033;-75
2024/03/28 07:26:07;;;;;;;15.52;5.20;;;;;;;5.67;100.00;98139.56;5043666;28;20044;-74
2024/03/28 07:28:32;;;;;;;16.25;5.22;;;;;;;5.56;100.00;98144.13;5043116;28;20443;-74
2024/03/28 07:30:58;;;;;;;16.25;5.45;;;;;;;5.40;100.00;98151.41;5043662;28;20175;-76
2024/03/28 07:33:23;;;;;;;17.58;5.80;;;;;;;5.33;100.00;98144.53;5041870;28;20029;-75
2024/03/28 07:35:48;;;;;;;15.95;5.18;;;;;;;5.28;100.00;98152.47;5045940;28;20029;-76
2024/03/28 07:38:14;;;;;;;16.67;5.75;;;;;;;5.22;100.00;98145.59;5042694;28;20046;-75
2024/03/28 07:40:39;;;;;;;17.38;5.65;;;;;;;5.19;100.00;98158.72;5044018;28;20027;-75
2024/03/28 07:43:04;;;;;;;15.80;5.15;;;;;;;5.20;100.00;98150.00;5042706;28;20057;-75
2024/03/28 07:45:30;;;;;;;16.83;5.70;;;;;;;5.21;100.00;98161.31;5042516;28;20114;-76
2024/03/28 07:47:55;;;;;;;15.73;5.57;;;;;;;5.24;100.00;98159.53;5044859;28;20041;-78
2024/03/28 07:50:20;;;;;;;16.27;5.70;;;;;;;5.24;100.00;98156.03;5041961;28;20032;-77
2024/03/28 07:52:46;;;;;;;17.33;5.88;;;;;;;5.31;100.00;98162.03;5045017;28;20060;-77
2024/03/28 07:55:12;;;;;;;17.38;5.93;;;;;;;5.32;100.00;98161.16;5042412;28;20031;-78
2024/03/28 07:57:37;;;;;;;15.77;5.20;;;;;;;5.33;100.00;98161.13;5043707;28;20029;-78
2024/03/28 08:00:03;;;;;;;18.83;5.68;;;;;;;5.33;100.00;98165.50;5043421;28;20385;-66
2024/03/28 08:02:29;;;;;;;16.08;5.07;;;;;;;5.32;100.00;98172.50;5042274;28;20125;-75
2024/03/28 08:04:54;;;;;;;15.57;5.07;;;;;;;5.32;100.00;98176.88;5044940;28;20531;-65
2024/03/28 08:07:19;;;;;;;17.92;5.07;;;;;;;5.32;100.00;98176.88;5041145;28;20047;-68
2024/03/28 08:09:46;;;;;;;16.50;5.00;;;;;;;5.34;100.00;98182.94;5044458;28;20039;-64
2024/03/28 08:12:14;;;;;;;15.52;4.65;;;;;;;5.34;100.00;98186.41;5042383;28;20472;-64
2024/03/28 08:14:40;;;;;;;12.30;4.40;;;;;;;5.34;100.00;98183.81;5043548;28;20035;-76
2024/03/28 08:17:07;;;;;;;11.40;4.15;;;;;;;5.32;100.00;98179.50;5043442;28;20387;-64
2024/03/28 08:19:33;;;;;;;13.45;4.50;;;;;;;5.33;100.00;98182.09;5042507;28;20405;-76
2024/03/28 08:21:58;;;;;;;14.10;4.80;;;;;;;5.33;100.00;98175.97;5043896;28;20040;-70
2024/03/28 08:24:26;;;;;;;13.07;4.68;;;;;;;5.34;100.00;98191.66;5041123;28;20053;-67
2024/03/28 08:26:51;;;;;;;14.90;4.90;;;;;;;5.34;100.00;98194.28;5044892;28;20491;-64
2024/03/28 08:29:17;;;;;;;14.02;4.50;;;;;;;5.35;100.00;98187.31;5041216;28;20049;-76
2024/03/28 08:31:43;;;;;;;12.25;4.50;;;;;;;5.37;100.00;98185.50;5043843;28;20030;-65
2024/03/28 08:34:09;;;;;;;13.43;4.38;;;;;;;5.33;100.00;98186.44;5042306;28;20415;-76
2024/03/28 08:36:34;;;;;;;15.15;4.95;;;;;;;5.38;100.00;98195.09;5042540;28;20021;-64
2024/03/28 08:39:00;;;;;;;14.65;5.30;;;;;;;5.44;100.00;98195.00;5042271;28;20040;-65
2024/03/28 08:41:26;;;;;;;14.25;5.07;;;;;;;5.49;100.00;98198.41;5040949;28;20075;-65
2024/03/28 08:43:51;;;;;;;15.95;5.28;;;;;;;5.58;100.00;98194.78;5044154;28;20040;-64
2024/03/28 08:46:17;;;;;;;13.18;5.00;;;;;;;5.61;100.00;98196.44;5040983;28;20026;-67
2024/03/28 08:48:46;;;;;;;14.18;5.20;;;;;;;5.66;100.00;98199.88;5043496;28;20029;-66
2024/03/28 08:51:13;;;;;;;13.48;4.90;;;;;;;5.69;100.00;98200.66;5037787;28;20018;-69
2024/03/28 08:53:39;;;;;;;15.23;5.15;;;;;;;5.71;100.00;98219.03;5040264;28;20400;-67
2024/03/28 08:56:04;;;;;;;16.25;5.57;;;;;;;5.72;100.00;98221.59;5041783;28;20033;-67
2024/03/28 08:58:29;;;;;;;15.10;5.28;;;;;;;5.69;100.00;98226.03;5041162;28;20034;-67
2024/03/28 09:00:55;;;;;;;17.35;6.00;;;;;;;5.71;100.00;98229.50;5044162;28;20033;-68
2024/03/28 09:03:21;;;;;;;16.35;6.45;;;;;;;5.73;100.00;98230.31;5040597;28;20040;-64
2024/03/28 09:05:48;;;;;;;16.83;6.60;;;;;;;5.76;100.00;98235.50;5043059;28;20107;-64
2024/03/28 09:08:15;;;;;;;16.60;6.60;;;;;;;5.82;100.00;98240.63;5043000;28;20029;-65
2024/03/28 09:10:41;;;;;;;17.73;6.97;;;;;;;5.85;100.00;98242.34;5046384;28;20041;-64
2024/03/28 09:13:06;;;;;;;18.15;6.95;;;;;;;5.87;100.00;98244.06;5046562;28;20025;-65
2024/03/28 09:15:32;;;;;;;14.70;5.57;;;;;;;5.90;100.00;98257.09;5045105;28;20036;-65
2024/03/28 09:17:57;;;;;;;14.57;5.53;;;;;;;5.92;100.00;98255.31;5047889;28;20025;-68
2024/03/28 09:20:26;;;;;;;16.08;5.85;;;;;;;5.91;100.00;98257.97;5044247;28;20472;-64
2024/03/28 09:22:52;;;;;;;15.85;5.68;;;;;;;5.99;100.00;98263.97;5048063;28;20163;-77
2024/03/28 09:25:18;;;;;;;16.40;5.68;;;;;;;6.00;100.00;98267.47;5045237;28;20128;-73
2024/03/28 09:27:44;;;;;;;14.48;4.75;;;;;;;5.99;100.00;98273.63;5028726;28;20160;-77
2024/03/28 09:30:11;;;;;;;13.93;4.65;;;;;;;5.90;100.00;98280.72;5046196;28;20120;-76
2024/03/28 09:32:37;;;;;;;13.85;4.57;;;;;;;5.87;100.00;98286.00;5045563;28;20472;-74
2024/03/28 09:35:03;;;;;;;13.05;4.80;;;;;;;5.88;100.00;98300.88;5043473;28;20026;-74
2024/03/28 09:37:28;;;;;;;12.50;4.50;;;;;;;5.84;100.00;98300.91;5047881;28;20025;-78
2024/03/28 09:39:54;;;;;;;14.60;4.53;;;;;;;5.84;100.00;98309.66;5044061;28;20057;-77
2024/03/28 09:42:22;;;;;;;13.93;4.70;;;;;;;5.78;100.00;98312.38;5047233;28;20032;-77
2024/03/28 09:44:47;;;;;;;12.90;4.80;;;;;;;5.79;100.00;98323.75;5043839;28;20033;-75
2024/03/28 09:47:16;;;;;;;15.35;4.85;;;;;;;5.76;100.00;98335.13;5046206;28;20111;-78
2024/03/28 09:49:43;;;;;;;11.70;4.50;;;;;;;5.81;100.00;98340.31;5045587;28;20119;-75
2024/03/28 09:52:09;;;;;;;8.95;3.33;;;;;;;5.64;100.00;98337.97;5045753;28;20033;-77
2024/03/28 09:54:37;;;;;;;8.80;3.53;;;;;;;5.55;100.00;98338.97;5045076;28;20399;-74
2024/03/28 09:57:02;;;;;;;8.10;3.40;;;;;;;5.47;100.00;98341.69;5044508;28;20465;-77
2024/03/28 09:59:28;;;;;;;7.65;3.30;;;;;;;5.49;100.00;98352.16;5047560;28;20132;-77
2024/03/28 10:01:58;;;;;;;10.80;3.50;;;;;;;5.51;100.00;98361.72;5043795;28;20473;-76
2024/03/28 10:04:28;;;;;;;9.57;3.30;;;;;;;5.45;100.00;98363.59;5043475;28;20035;-70
2024/03/28 10:06:54;;;;;;;6.38;2.70;;;;;;;5.40;100.00;98375.00;5047117;28;20036;-69
2024/03/28 10:09:21;;;;;;;5.03;2.58;;;;;;;5.39;100.00;98372.41;5044078;28;20022;-74
2024/03/28 10:11:48;;;;;;;5.35;2.50;;;;;;;5.45;100.00;98374.91;5046011;28;20083;-76
2024/03/28 10:14:18;;;;;;;5.60;2.60;;;;;;;5.51;100.00;98374.81;5044790;28;20044;-75
2024/03/28 10:16:48;;;;;;;8.13;2.78;;;;;;;5.61;100.00;98385.16;5045537;28;20473;-76
2024/03/28 10:19:18;;;;;;;6.70;2.90;;;;;;;5.63;100.00;98386.03;5044376;28;20017;-75
2024/03/28 10:21:44;;;;;;;9.88;3.35;;;;;;;5.74;100.00;98397.22;5045834;28;20064;-74
2024/03/28 10:24:16;;;;;;;11.73;3.80;;;;;;;5.86;100.00;98420.63;5044946;28;20029;-68
2024/03/28 10:26:42;;;;;;;;;;;;;;;5.98;100.00;98416.97;5045430;28;20084;-69
2024/03/28 10:29:12;;;;;;;15.52;4.82;;;;;;;6.14;100.00;98422.00;5044940;28;19917;-74
2024/03/28 10:31:39;;;;;;;13.68;4.65;;;;;;;6.37;100.00;98416.34;5044650;28;20025;-76
2024/03/28 10:34:12;;;;;;;17.10;5.57;;;;;;;6.55;100.00;98418.66;5045661;28;20024;-76
2024/03/28 10:36:38;;;;;;;17.40;5.60;;;;;;;6.71;100.00;98421.84;5044342;28;20026;-75
2024/03/28 10:39:06;;;;;;;16.98;5.70;;;;;;;6.90;100.00;98430.28;5045740;28;20383;-75
2024/03/28 10:41:34;;;;;;;16.85;6.03;;;;;;;7.10;100.00;98431.63;5043582;28;20481;-76
2024/03/28 10:44:00;;;;;;;16.48;5.90;;;;;;;7.26;100.00;98430.41;5045871;28;20039;-66
2024/03/28 10:46:27;;;;;;;16.45;6.07;;;;;;;8.07;100.00;98436.53;5041756;28;20073;-67
2024/03/28 10:48:55;;;;;;;17.38;5.55;;;;;;;9.18;100.00;98437.22;5045931;28;20029;-66
2024/03/28 10:51:40;;;;;;;15.95;5.07;;;;;;;10.20;100.00;98459.69;5042945;28;20116;-66
2024/03/28 10:54:20;;;;;;;13.32;4.07;;;;;;;10.70;100.00;98461.59;5041462;28;20388;-67
2024/03/28 10:56:46;;;;;;;12.15;4.07;;;;;;;11.28;100.00;98424.31;5043544;28;20036;-67
2024/03/28 10:59:14;;;;;;;10.38;3.67;;;;;;;11.58;100.00;98432.03;5044542;28;20037;-66
2024/03/28 11:01:40;;;;;;;8.65;3.30;;;;;;;11.09;100.00;98422.34;5044250;28;20047;-66
2024/03/28 11:04:11;;;;;;;8.98;3.20;;;;;;;10.68;100.00;98437.88;5043314;28;20468;-67
2024/03/28 11:06:37;;;;;;;10.88;3.00;;;;;;;9.93;100.00;98433.25;5045080;28;20383;-67
2024/03/28 11:09:03;;;;;;;12.18;2.90;;;;;;;9.47;100.00;98446.06;5042747;28;20053;-68
2024/03/28 11:11:30;;;;;;;11.20;2.90;;;;;;;9.66;100.00;98443.75;5045762;28;20100;-66
2024/03/28 11:13:57;;;;;;;9.25;2.50;;;;;;;10.32;100.00;98443.44;5042226;28;20049;-68
2024/03/28 11:16:23;;;;;;;7.07;2.50;;;;;;;11.50;100.00;98438.47;5045302;28;20542;-66
2024/03/28 11:18:49;;;;;;;7.53;2.30;;;;;;;11.91;100.00;98429.00;5042638;28;20128;-69
2024/03/28 11:21:33;;;;;;;6.65;2.20;;;;;;;10.59;100.00;98456.69;5044324;28;20120;-67
2024/03/28 11:23:58;;;;;;;10.05;2.30;;;;;;;11.55;100.00;98438.31;5039082;28;20380;-67
2024/03/28 11:26:25;;;;;;;7.85;2.20;;;;;;;12.35;100.00;98452.88;5045269;28;20029;-69